Time;durP1;ratioP1;P1;durP2;ratioP2;P2;SDS_P1;SDS_P2;PMS_P1;PMS_P2;Temp;Humidity;BMP_temperature;BMP_pressure;BME280_temperature;BME280_humidity;BME280_pressure;Samples;Min_cycle;Max_cycle;Signal;HPM_P1;HPM_P2
2022/06/15 00:01:36;;;;;;;2.80;1.40;;;;;;;;;;5033127;28;20573;-79
2022/06/15 00:04:05;;;;;;;2.00;1.90;;;;;;;;;;5032727;28;20202;-79
2022/06/15 00:06:33;;;;;;;1.93;1.83;;;;;;;;;;5033387;28;20575;-79
2022/06/15 00:09:01;;;;;;;1.60;1.50;;;;;;;;;;5033498;28;20226;-79
2022/06/15 00:11:28;;;;;;;1.73;1.60;;;;;;;;;;5037584;28;20219;-79
2022/06/15 00:13:56;;;;;;;1.60;1.50;;;;;;;;;;5032601;28;20203;-79
2022/06/15 00:16:23;;;;;;;1.50;1.40;;;;;;;;;;5032450;28;20597;-79
2022/06/15 00:18:50;;;;;;;1.50;1.40;;;;;;;;;;5036010;28;20223;-79
2022/06/15 00:21:19;;;;;;;1.67;1.60;;;;;;;;;;5035914;28;20257;-79
2022/06/15 00:23:47;;;;;;;1.60;1.50;;;;;;;;;;5036380;28;20692;-79
2022/06/15 00:26:14;;;;;;;1.63;1.53;;;;;;;;;;5036453;28;20234;-79
2022/06/15 00:28:42;;;;;;;1.80;1.70;;;;;;;;;;5036566;28;20231;-79
2022/06/15 00:31:09;;;;;;;1.90;1.80;;;;;;;;;;5035985;28;20230;-79
2022/06/15 00:33:36;;;;;;;1.77;1.67;;;;;;;;;;5036675;28;20203;-79
2022/06/15 00:36:05;;;;;;;2.00;1.90;;;;;;;;;;5035711;28;20706;-79
2022/06/15 00:38:35;;;;;;;1.90;1.80;;;;;;;;;;5037032;28;20226;-79
2022/06/15 00:41:02;;;;;;;1.83;1.70;;;;;;;;;;5044990;28;20241;-80
2022/06/15 00:43:35;;;;;;;1.80;1.70;;;;;;;;;;5035486;28;20206;-79
2022/06/15 00:46:03;;;;;;;4.80;2.10;;;;;;;;;;5040546;28;20236;-79
2022/06/15 00:48:30;;;;;;;2.50;1.80;;;;;;;;;;5040639;28;20221;-79
2022/06/15 00:50:57;;;;;;;1.80;1.70;;;;;;;;;;5038435;28;20233;-79
2022/06/15 00:53:24;;;;;;;1.87;1.77;;;;;;;;;;5038786;28;20210;-79
2022/06/15 00:55:53;;;;;;;2.23;2.10;;;;;;;;;;5037854;28;20230;-79
2022/06/15 00:58:20;;;;;;;2.13;2.00;;;;;;;;;;5038421;28;20223;-79
2022/06/15 01:00:51;;;;;;;2.57;2.10;;;;;;;;;;5037601;28;20227;-78
2022/06/15 01:03:18;;;;;;;2.00;1.90;;;;;;;;;;5036853;28;20206;-78
2022/06/15 01:05:49;;;;;;;2.17;1.97;;;;;;;;;;5036081;28;20245;-79
2022/06/15 01:08:19;;;;;;;1.90;1.80;;;;;;;;;;5033154;28;20247;-79
2022/06/15 01:10:52;;;;;;;1.90;1.80;;;;;;;;;;5037364;28;20235;-78
2022/06/15 01:13:26;;;;;;;1.57;1.57;;;;;;;;;;5037439;28;20604;-78
2022/06/15 01:15:57;;;;;;;2.23;2.00;;;;;;;;;;5037106;28;20260;-78
2022/06/15 01:18:29;;;;;;;2.00;1.90;;;;;;;;;;5037756;28;20234;-79
2022/06/15 01:21:10;;;;;;;2.30;2.20;;;;;;;;;;5036624;28;20313;-78
2022/06/15 01:23:58;;;;;;;2.27;2.07;;;;;;;;;;5037485;28;20202;-79
2022/06/15 01:26:44;;;;;;;2.37;2.20;;;;;;;;;;5036652;28;20219;-78
2022/06/15 01:29:16;;;;;;;1.73;1.63;;;;;;;;;;5053856;22;20259;-83
2022/06/15 01:31:47;;;;;;;2.00;1.90;;;;;;;;;;5042330;28;20190;-83
2022/06/15 01:34:19;;;;;;;3.20;1.57;;;;;;;;;;5049851;28;20215;-84
2022/06/15 01:36:48;;;;;;;2.13;1.93;;;;;;;;;;5025563;28;20195;-83
2022/06/15 01:39:19;;;;;;;1.90;1.80;;;;;;;;;;5037549;28;20237;-84
2022/06/15 01:41:50;;;;;;;1.70;1.60;;;;;;;;;;5037276;28;20239;-85
2022/06/15 01:44:21;;;;;;;1.90;1.80;;;;;;;;;;5036597;28;20222;-83
2022/06/15 01:46:50;;;;;;;2.87;2.00;;;;;;;;;;5029098;28;20199;-83
2022/06/15 01:49:19;;;;;;;2.17;2.07;;;;;;;;;;5018948;28;20219;-83
2022/06/15 01:51:47;;;;;;;2.00;1.87;;;;;;;;;;5023193;28;20214;-83
2022/06/15 01:54:17;;;;;;;1.80;1.70;;;;;;;;;;5025656;28;20208;-83
2022/06/15 01:56:45;;;;;;;2.00;1.90;;;;;;;;;;5022353;28;20206;-83
2022/06/15 01:59:15;;;;;;;1.67;1.57;;;;;;;;;;5035717;28;20230;-83
2022/06/15 02:01:47;;;;;;;1.97;1.87;;;;;;;;;;5030766;28;20234;-83
2022/06/15 02:04:18;;;;;;;3.77;1.70;;;;;;;;;;5020963;28;20212;-84
2022/06/15 02:06:50;;;;;;;1.90;1.80;;;;;;;;;;5020195;28;20204;-84
2022/06/15 02:09:21;;;;;;;1.97;1.87;;;;;;;;;;5036771;28;20234;-84
2022/06/15 02:11:48;;;;;;;2.33;2.13;;;;;;;;;;5022068;28;20202;-84
2022/06/15 02:14:18;;;;;;;1.80;1.70;;;;;;;;;;5033163;28;20663;-83
2022/06/15 02:16:47;;;;;;;2.10;2.00;;;;;;;;;;5022359;28;20223;-83
2022/06/15 02:19:18;;;;;;;1.83;1.73;;;;;;;;;;5028239;28;20219;-84
2022/06/15 02:21:46;;;;;;;1.80;1.70;;;;;;;;;;5014441;28;20214;-83
2022/06/15 02:24:14;;;;;;;1.90;1.80;;;;;;;;;;5026072;28;20209;-83
2022/06/15 02:26:41;;;;;;;3.23;1.90;;;;;;;;;;5017213;28;20208;-84
2022/06/15 02:29:11;;;;;;;2.27;2.17;;;;;;;;;;5016003;28;20585;-83
2022/06/15 02:31:38;;;;;;;3.40;1.80;;;;;;;;;;5020425;28;20730;-83
2022/06/15 02:34:05;;;;;;;2.03;1.83;;;;;;;;;;5013519;28;20211;-84
2022/06/15 02:36:35;;;;;;;2.27;2.07;;;;;;;;;;5014843;28;20211;-84
2022/06/15 02:39:05;;;;;;;2.50;2.33;;;;;;;;;;5012329;28;20226;-84
2022/06/15 02:41:32;;;;;;;2.47;1.83;;;;;;;;;;5033037;28;20227;-84
2022/06/15 02:44:00;;;;;;;2.07;1.97;;;;;;;;;;5017959;28;20223;-84
2022/06/15 02:46:28;;;;;;;2.20;1.90;;;;;;;;;;5021932;28;20206;-84
2022/06/15 02:48:56;;;;;;;2.23;2.03;;;;;;;;;;5026442;28;20717;-84
2022/06/15 02:51:26;;;;;;;2.00;1.90;;;;;;;;;;5025029;28;20211;-84
2022/06/15 02:53:57;;;;;;;2.37;2.23;;;;;;;;;;5024377;28;20207;-84
2022/06/15 02:56:24;;;;;;;4.37;2.30;;;;;;;;;;5017274;28;20691;-84
2022/06/15 02:58:53;;;;;;;2.40;2.20;;;;;;;;;;5026272;28;20219;-83
2022/06/15 03:01:20;;;;;;;3.03;2.30;;;;;;;;;;5028237;28;20285;-83
2022/06/15 03:03:48;;;;;;;2.20;2.10;;;;;;;;;;5032926;28;20194;-83
2022/06/15 03:06:17;;;;;;;2.47;2.23;;;;;;;;;;5021283;28;20231;-84
2022/06/15 03:08:44;;;;;;;4.57;2.50;;;;;;;;;;5015010;28;20231;-84
2022/06/15 03:11:12;;;;;;;2.40;2.20;;;;;;;;;;5031843;28;20241;-84
2022/06/15 03:13:40;;;;;;;2.30;2.20;;;;;;;;;;5019325;28;20200;-84
2022/06/15 03:16:07;;;;;;;2.73;2.37;;;;;;;;;;5012692;28;20729;-83
2022/06/15 03:18:34;;;;;;;2.43;2.23;;;;;;;;;;5013080;28;20230;-84
2022/06/15 03:21:02;;;;;;;2.50;2.40;;;;;;;;;;5024868;28;20234;-83
2022/06/15 03:23:30;;;;;;;2.57;2.40;;;;;;;;;;5030446;28;20207;-83
2022/06/15 03:25:58;;;;;;;2.53;2.33;;;;;;;;;;5019887;28;20223;-83
2022/06/15 03:28:27;;;;;;;2.30;2.10;;;;;;;;;;5022038;28;20230;-84
2022/06/15 03:30:54;;;;;;;2.43;2.30;;;;;;;;;;5014944;28;20246;-84
2022/06/15 03:33:21;;;;;;;2.40;2.20;;;;;;;;;;5018882;28;20215;-84
2022/06/15 03:35:48;;;;;;;2.73;2.27;;;;;;;;;;5032275;28;20234;-84
2022/06/15 03:38:15;;;;;;;2.40;2.30;;;;;;;;;;5032245;28;20218;-84
2022/06/15 03:40:44;;;;;;;2.43;2.33;;;;;;;;;;5029873;28;20246;-84
2022/06/15 03:43:12;;;;;;;4.10;2.60;;;;;;;;;;5030691;28;20228;-84
2022/06/15 03:45:42;;;;;;;3.47;2.33;;;;;;;;;;5023624;28;20439;-84
2022/06/15 03:48:09;;;;;;;2.93;2.27;;;;;;;;;;5027334;28;20211;-85
2022/06/15 03:50:37;;;;;;;3.10;2.20;;;;;;;;;;5012008;28;20247;-84
2022/06/15 03:53:05;;;;;;;2.10;2.00;;;;;;;;;;5014632;28;20210;-85
2022/06/15 03:55:32;;;;;;;2.43;2.23;;;;;;;;;;5016047;28;20231;-84
2022/06/15 03:58:00;;;;;;;3.13;2.17;;;;;;;;;;5016176;28;20614;-84
2022/06/15 04:00:28;;;;;;;2.67;2.47;;;;;;;;;;5015825;28;20235;-84
2022/06/15 04:02:56;;;;;;;2.30;2.20;;;;;;;;;;5021870;28;20243;-81
2022/06/15 04:05:27;;;;;;;2.00;1.90;;;;;;;;;;5031109;28;20239;-81
2022/06/15 04:10:39;;;;;;;3.20;2.13;;;;;;;;;;5029742;28;20287;-83
2022/06/15 04:13:06;;;;;;;2.60;2.40;;;;;;;;;;5029880;28;20222;-82
2022/06/15 04:15:33;;;;;;;3.47;2.60;;;;;;;;;;5030351;28;20243;-82
2022/06/15 04:18:02;;;;;;;2.13;2.03;;;;;;;;;;5031437;28;20203;-80
2022/06/15 04:20:37;;;;;;;4.80;2.40;;;;;;;;;;5030192;28;20266;-81
2022/06/15 04:23:05;;;;;;;2.60;2.40;;;;;;;;;;5030424;28;20231;-85
2022/06/15 04:25:34;;;;;;;2.23;2.10;;;;;;;;;;5029580;28;20239;-82
2022/06/15 04:28:01;;;;;;;2.53;2.33;;;;;;;;;;5026675;28;20215;-82
2022/06/15 04:30:28;;;;;;;2.87;2.40;;;;;;;;;;5027303;28;20243;-83
2022/06/15 04:32:55;;;;;;;2.50;2.30;;;;;;;;;;5028183;28;20207;-83
2022/06/15 04:35:24;;;;;;;2.87;2.67;;;;;;;;;;5027408;28;20235;-82
2022/06/15 04:37:51;;;;;;;2.70;2.50;;;;;;;;;;5028116;28;20208;-81
2022/06/15 04:40:18;;;;;;;3.60;2.63;;;;;;;;;;5035781;28;20237;-83
2022/06/15 04:42:45;;;;;;;2.60;2.40;;;;;;;;;;5068555;28;20229;-81
2022/06/15 04:45:13;;;;;;;4.47;2.70;;;;;;;;;;5068677;28;20237;-81
2022/06/15 04:47:40;;;;;;;2.97;2.77;;;;;;;;;;5061588;28;20574;-82
2022/06/15 04:50:08;;;;;;;3.93;2.80;;;;;;;;;;5051464;28;20238;-81
2022/06/15 04:52:37;;;;;;;3.37;2.77;;;;;;;;;;5047719;28;20213;-82
2022/06/15 04:55:04;;;;;;;2.50;2.30;;;;;;;;;;5046421;28;20241;-81
2022/06/15 04:57:32;;;;;;;2.33;2.23;;;;;;;;;;5048289;28;20214;-81
2022/06/15 04:59:59;;;;;;;3.10;2.90;;;;;;;;;;5047920;28;20242;-81
2022/06/15 05:02:26;;;;;;;4.40;3.30;;;;;;;;;;5047741;28;20761;-81
2022/06/15 05:04:53;;;;;;;2.80;2.60;;;;;;;;;;5046137;28;20237;-82
2022/06/15 05:07:20;;;;;;;3.20;3.00;;;;;;;;;;5046172;28;20203;-82
2022/06/15 05:09:51;;;;;;;3.30;3.00;;;;;;;;;;5045994;28;20245;-82
2022/06/15 05:12:18;;;;;;;3.03;2.73;;;;;;;;;;5044878;28;20214;-82
2022/06/15 05:14:47;;;;;;;3.00;2.67;;;;;;;;;;5044941;28;20235;-82
2022/06/15 05:17:14;;;;;;;3.40;3.10;;;;;;;;;;5044927;28;20206;-82
2022/06/15 05:19:42;;;;;;;7.07;3.10;;;;;;;;;;5042296;28;20241;-83
2022/06/15 05:22:09;;;;;;;3.30;2.97;;;;;;;;;;5041517;28;20227;-83
2022/06/15 05:24:36;;;;;;;3.13;2.90;;;;;;;;;;5040067;28;20237;-82
2022/06/15 05:27:05;;;;;;;3.20;2.90;;;;;;;;;;5038708;28;20244;-84
2022/06/15 05:29:32;;;;;;;3.30;3.00;;;;;;;;;;5037687;28;20285;-83
2022/06/15 05:31:59;;;;;;;2.93;2.67;;;;;;;;;;5037798;28;20633;-83
2022/06/15 05:34:27;;;;;;;3.50;3.20;;;;;;;;;;5037580;28;20289;-84
2022/06/15 05:36:54;;;;;;;2.90;2.53;;;;;;;;;;5038811;28;20268;-82
2022/06/15 05:39:21;;;;;;;2.60;2.40;;;;;;;;;;5037549;28;20705;-83
2022/06/15 05:41:49;;;;;;;2.90;2.70;;;;;;;;;;5038509;28;20226;-83
2022/06/15 05:44:20;;;;;;;4.23;2.70;;;;;;;;;;5038725;28;20281;-83
2022/06/15 05:46:47;;;;;;;3.40;2.83;;;;;;;;;;5038543;28;20217;-83
2022/06/15 05:49:15;;;;;;;3.10;2.23;;;;;;;;;;5038059;28;20752;-82
2022/06/15 05:51:42;;;;;;;2.93;2.43;;;;;;;;;;5038772;28;20207;-83
2022/06/15 05:54:11;;;;;;;2.67;2.47;;;;;;;;;;5039836;28;20539;-83
2022/06/15 05:56:38;;;;;;;2.47;2.27;;;;;;;;;;5041343;28;20252;-83
2022/06/15 05:59:05;;;;;;;2.30;2.10;;;;;;;;;;5042505;28;20231;-82
2022/06/15 06:01:34;;;;;;;2.50;2.10;;;;;;;;;;5052645;28;20229;-82
2022/06/15 06:04:02;;;;;;;3.30;2.20;;;;;;;;;;5061664;28;20264;-82
2022/06/15 06:06:29;;;;;;;3.17;2.13;;;;;;;;;;5062546;28;20221;-82
2022/06/15 06:08:56;;;;;;;4.13;2.07;;;;;;;;;;5062210;28;20238;-83
2022/06/15 06:11:24;;;;;;;2.00;1.90;;;;;;;;;;5062435;28;20230;-82
2022/06/15 06:13:51;;;;;;;1.77;1.67;;;;;;;;;;5061049;28;20214;-83
2022/06/15 06:16:18;;;;;;;2.80;2.13;;;;;;;;;;5029505;28;20234;-82
2022/06/15 06:18:47;;;;;;;2.03;1.90;;;;;;;;;;5053413;28;20221;-82
2022/06/15 06:21:15;;;;;;;3.90;1.80;;;;;;;;;;5060536;28;20284;-82
2022/06/15 06:23:42;;;;;;;2.10;1.90;;;;;;;;;;5047656;28;20588;-82
2022/06/15 06:26:15;;;;;;;3.63;2.03;;;;;;;;;;5040839;28;20242;-82
2022/06/15 06:28:42;;;;;;;1.50;1.40;;;;;;;;;;5040856;28;20242;-82
2022/06/15 06:31:11;;;;;;;1.88;1.65;;;;;;;;;;5047224;28;20237;-82
2022/06/15 06:33:39;;;;;;;1.80;1.67;;;;;;;;;;5060002;28;20205;-82
2022/06/15 06:36:09;;;;;;;1.65;1.52;;;;;;;;;;5061910;28;20241;-82
2022/06/15 06:38:37;;;;;;;1.42;1.35;;;;;;;;;;5061089;28;20225;-82
2022/06/15 06:41:04;;;;;;;1.50;1.40;;;;;;;;;;5061614;28;20229;-83
2022/06/15 06:43:31;;;;;;;1.58;1.48;;;;;;;;;;5058837;28;20230;-82
2022/06/15 06:45:58;;;;;;;2.08;1.50;;;;;;;;;;5047335;28;20258;-82
2022/06/15 06:48:25;;;;;;;2.97;1.67;;;;;;;;;;5042739;28;20202;-82
2022/06/15 06:50:53;;;;;;;1.40;1.30;;;;;;;;;;5037052;28;20720;-84
2022/06/15 06:53:22;;;;;;;1.50;1.40;;;;;;;;;;5037416;28;20199;-83
2022/06/15 06:55:49;;;;;;;3.22;1.83;;;;;;;;;;5036375;28;20250;-83
2022/06/15 06:58:16;;;;;;;1.60;1.50;;;;;;;;;;5036828;28;20305;-82
2022/06/15 07:00:43;;;;;;;3.28;2.00;;;;;;;;;;5037457;28;20230;-83
2022/06/15 07:03:10;;;;;;;1.90;1.30;;;;;;;;;;5037063;28;20234;-83
2022/06/15 07:05:38;;;;;;;1.70;1.60;;;;;;;;;;5037726;28;20284;-83
2022/06/15 07:08:05;;;;;;;1.73;1.30;;;;;;;;;;5037584;28;20213;-82
2022/06/15 07:10:34;;;;;;;1.80;1.70;;;;;;;;;;5037376;28;20651;-82
2022/06/15 07:13:01;;;;;;;2.67;1.38;;;;;;;;;;5038076;28;20606;-83
2022/06/15 07:15:28;;;;;;;1.70;1.60;;;;;;;;;;5038294;28;20238;-81
2022/06/15 07:17:58;;;;;;;2.13;1.77;;;;;;;;;;5037709;28;20218;-83
2022/06/15 07:20:25;;;;;;;1.83;1.42;;;;;;;;;;5035602;28;20243;-82
2022/06/15 07:22:52;;;;;;;1.50;1.40;;;;;;;;;;5036990;28;20253;-83
2022/06/15 07:25:19;;;;;;;1.48;1.38;;;;;;;;;;5037007;28;20241;-82
2022/06/15 07:27:48;;;;;;;1.67;1.58;;;;;;;;;;5036781;28;20203;-84
2022/06/15 07:30:16;;;;;;;1.38;1.30;;;;;;;;;;5050006;28;20249;-83
2022/06/15 07:32:44;;;;;;;1.30;1.23;;;;;;;;;;5054607;28;20194;-82
2022/06/15 07:35:14;;;;;;;1.95;1.48;;;;;;;;;;5055815;28;20244;-83
2022/06/15 07:37:41;;;;;;;1.75;1.42;;;;;;;;;;5056163;28;20210;-83
2022/06/15 07:40:09;;;;;;;2.10;1.60;;;;;;;;;;5054714;28;20237;-82
2022/06/15 07:42:36;;;;;;;1.48;1.38;;;;;;;;;;5054920;28;20233;-81
2022/06/15 07:45:05;;;;;;;1.70;1.27;;;;;;;;;;5054251;28;20245;-80
2022/06/15 07:50:18;;;;;;;2.88;1.70;;;;;;;;;;5054256;28;20312;-80
2022/06/15 07:52:46;;;;;;;1.60;1.50;;;;;;;;;;5056558;28;20210;-84
2022/06/15 07:55:16;;;;;;;2.70;1.50;;;;;;;;;;5058274;28;20238;-82
2022/06/15 07:57:43;;;;;;;1.52;1.42;;;;;;;;;;5057349;28;20202;-80
2022/06/15 08:00:14;;;;;;;1.60;1.50;;;;;;;;;;5058049;28;20237;-81
2022/06/15 08:02:41;;;;;;;1.70;1.40;;;;;;;;;;5056252;28;20226;-84
2022/06/15 08:05:09;;;;;;;3.67;1.27;;;;;;;;;;5057009;28;20229;-83
2022/06/15 08:07:37;;;;;;;2.42;1.10;;;;;;;;;;5057567;28;20202;-82
2022/06/15 08:10:04;;;;;;;1.02;1.02;;;;;;;;;;5056986;28;20780;-82
2022/06/15 08:12:31;;;;;;;3.08;1.70;;;;;;;;;;5055018;28;20607;-81
2022/06/15 08:14:59;;;;;;;1.40;1.30;;;;;;;;;;5055006;28;20615;-82
2022/06/15 08:17:29;;;;;;;1.40;1.30;;;;;;;;;;5057150;28;20210;-83
2022/06/15 08:19:57;;;;;;;3.00;1.48;;;;;;;;;;5056662;28;20237;-82
2022/06/15 08:22:25;;;;;;;2.25;1.30;;;;;;;;;;5056631;28;20233;-82
2022/06/15 08:24:52;;;;;;;1.33;1.23;;;;;;;;;;5054930;28;20725;-83
2022/06/15 08:27:21;;;;;;;1.63;1.23;;;;;;;;;;5056582;28;20206;-81
2022/06/15 08:29:48;;;;;;;1.38;1.27;;;;;;;;;;5057216;28;20242;-80
2022/06/15 08:32:15;;;;;;;1.40;1.30;;;;;;;;;;5056454;28;20210;-82
2022/06/15 08:34:43;;;;;;;1.00;1.00;;;;;;;;;;5053929;28;20225;-82
2022/06/15 08:37:14;;;;;;;1.50;1.40;;;;;;;;;;5056638;28;20217;-83
2022/06/15 08:39:41;;;;;;;1.88;1.35;;;;;;;;;;5055708;28;20317;-83
2022/06/15 08:42:12;;;;;;;3.47;1.40;;;;;;;;;;5055856;28;20210;-83
2022/06/15 08:44:44;;;;;;;1.60;1.50;;;;;;;;;;5054513;28;20233;-83
2022/06/15 08:47:20;;;;;;;3.75;1.30;;;;;;;;;;5055460;28;20568;-83
2022/06/15 08:49:55;;;;;;;1.40;1.30;;;;;;;;;;5043959;28;20261;-84
2022/06/15 08:52:26;;;;;;;1.98;1.40;;;;;;;;;;5035625;28;20244;-83
2022/06/15 08:54:56;;;;;;;1.52;1.40;;;;;;;;;;5034984;28;20234;-83
2022/06/15 08:57:26;;;;;;;1.50;1.20;;;;;;;;;;5035767;28;20608;-82
2022/06/15 08:59:58;;;;;;;1.45;1.23;;;;;;;;;;5034310;28;20230;-84
2022/06/15 09:02:28;;;;;;;1.50;1.40;;;;;;;;;;5035308;28;20202;-83
2022/06/15 09:04:59;;;;;;;2.85;1.67;;;;;;;;;;5037551;28;20230;-83
2022/06/15 09:07:31;;;;;;;1.65;1.55;;;;;;;;;;5036024;28;20191;-83
2022/06/15 09:10:06;;;;;;;1.35;1.25;;;;;;;;;;5034185;28;20230;-83
2022/06/15 09:12:59;;;;;;;1.50;1.40;;;;;;;;;;5035055;28;20187;-83
2022/06/15 09:15:43;;;;;;;1.63;1.52;;;;;;;;;;5033900;28;20322;-85
2022/06/15 09:18:14;;;;;;;1.30;1.25;;;;;;;;;;5034582;28;20215;-83
2022/06/15 09:20:44;;;;;;;2.50;1.42;;;;;;;;;;5033999;28;20338;-83
2022/06/15 09:23:16;;;;;;;1.65;1.40;;;;;;;;;;5034825;28;20233;-83
2022/06/15 09:25:45;;;;;;;1.50;1.38;;;;;;;;;;5035505;28;20262;-81
2022/06/15 09:28:15;;;;;;;1.75;1.65;;;;;;;;;;5034147;28;20214;-84
2022/06/15 09:30:44;;;;;;;2.58;1.50;;;;;;;;;;5033801;28;20262;-83
2022/06/15 09:33:14;;;;;;;1.60;1.50;;;;;;;;;;5033812;28;20662;-82
2022/06/15 09:35:46;;;;;;;1.80;1.50;;;;;;;;;;5033745;28;20230;-83
2022/06/15 09:38:14;;;;;;;1.50;1.40;;;;;;;;;;5035280;28;20609;-82
2022/06/15 09:40:43;;;;;;;2.50;1.40;;;;;;;;;;5037109;28;20237;-82
2022/06/15 09:43:14;;;;;;;2.28;1.50;;;;;;;;;;5037217;28;20226;-83
2022/06/15 09:45:45;;;;;;;1.88;1.63;;;;;;;;;;5035374;28;20237;-83
2022/06/15 09:48:17;;;;;;;1.15;1.15;;;;;;;;;;5035656;28;20211;-82
2022/06/15 09:50:49;;;;;;;1.45;1.35;;;;;;;;;;5036765;28;20238;-83
2022/06/15 09:53:22;;;;;;;2.00;1.40;;;;;;;;;;5033475;28;20195;-83
2022/06/15 09:55:51;;;;;;;1.48;1.38;;;;;;;;;;5034755;28;20736;-83
2022/06/15 09:58:20;;;;;;;1.88;1.50;;;;;;;;;;5026948;28;20217;-82
2022/06/15 10:00:49;;;;;;;1.85;1.30;;;;;;;;;;5041522;28;20789;-83
2022/06/15 10:03:18;;;;;;;1.70;1.60;;;;;;;;;;5057151;28;20584;-83
2022/06/15 10:05:48;;;;;;;1.60;1.35;;;;;;;;;;5055733;28;20324;-85
2022/06/15 10:08:16;;;;;;;1.40;1.30;;;;;;;;;;5056245;28;20662;-83
2022/06/15 10:10:44;;;;;;;1.50;1.40;;;;;;;;;;5061655;28;20233;-83
2022/06/15 10:13:26;;;;;;;1.40;1.38;;;;;;;;;;5056698;28;20213;-82
2022/06/15 10:15:54;;;;;;;1.60;1.50;;;;;;;;;;5053032;28;20284;-85
2022/06/15 10:18:24;;;;;;;1.38;1.33;;;;;;;;;;5053635;28;20206;-85
2022/06/15 10:21:03;;;;;;;1.27;0.98;;;;;;;;;;5052442;28;20237;-83
2022/06/15 10:23:38;;;;;;;1.45;1.35;;;;;;;;;;5054780;28;20327;-83
2022/06/15 10:26:05;;;;;;;1.23;1.10;;;;;;;;;;5052499;28;20257;-84
2022/06/15 10:28:34;;;;;;;1.23;1.13;;;;;;;;;;5053352;28;20237;-83
2022/06/15 10:31:04;;;;;;;1.40;1.30;;;;;;;;;;5052728;28;20237;-83
2022/06/15 10:33:35;;;;;;;1.33;1.30;;;;;;;;;;5053144;28;20202;-83
2022/06/15 10:36:04;;;;;;;1.77;1.50;;;;;;;;;;5051896;28;20232;-83
2022/06/15 10:38:31;;;;;;;1.15;1.02;;;;;;;;;;5053260;28;20235;-83
2022/06/15 10:41:45;;;;;;;1.60;1.50;;;;;;;;;;5052124;28;20244;-84
2022/06/15 10:43:48;;;;;;;1.35;1.25;;;;;;;;;;5052783;28;20312;-83
2022/06/15 10:46:15;;;;;;;1.67;1.50;;;;;;;;;;5054198;28;20229;-83
2022/06/15 10:48:44;;;;;;;1.48;1.27;;;;;;;;;;5032439;28;20234;-84
2022/06/15 10:51:14;;;;;;;1.38;1.27;;;;;;;;;;5043041;28;20230;-83
2022/06/15 10:53:43;;;;;;;1.25;1.15;;;;;;;;;;5052752;28;20205;-83
2022/06/15 11:02:11;;;;;;;1.40;1.23;;;;;;;;;;5046304;28;20755;-84
2022/06/15 11:04:39;;;;;;;1.05;1.05;;;;;;;;;;5051849;28;20233;-84
2022/06/15 11:07:09;;;;;;;1.83;1.25;;;;;;;;;;5053931;28;20227;-84
2022/06/15 11:09:37;;;;;;;1.40;1.30;;;;;;;;;;5052506;28;20638;-84
2022/06/15 11:12:07;;;;;;;1.35;1.25;;;;;;;;;;5051680;28;20206;-84
2022/06/15 11:14:35;;;;;;;1.50;1.40;;;;;;;;;;5051904;28;20229;-84
2022/06/15 11:20:20;;;;;;;1.20;1.20;;;;;;;;;;5051200;28;20747;-84
2022/06/15 11:22:50;;;;;;;1.20;1.10;;;;;;;;;;5052107;28;20229;-85
2022/06/15 11:25:20;;;;;;;1.33;1.30;;;;;;;;;;5053001;28;20240;-82
2022/06/15 11:27:50;;;;;;;1.08;1.08;;;;;;;;;;5045572;28;20225;-84
2022/06/15 11:30:21;;;;;;;1.10;1.00;;;;;;;;;;5056643;28;20241;-82
2022/06/15 11:32:52;;;;;;;1.20;1.10;;;;;;;;;;5057241;28;20190;-83
2022/06/15 11:35:23;;;;;;;1.00;1.00;;;;;;;;;;5055963;28;20247;-82
2022/06/15 11:37:53;;;;;;;1.75;1.27;;;;;;;;;;5057959;28;20193;-84
2022/06/15 11:40:22;;;;;;;1.30;1.20;;;;;;;;;;5055729;28;20291;-84
2022/06/15 11:42:51;;;;;;;1.92;0.90;;;;;;;;;;5057879;28;20210;-82
2022/06/15 11:45:18;;;;;;;1.17;1.08;;;;;;;;;;5055754;28;20244;-82
2022/06/15 11:47:52;;;;;;;0.98;0.98;;;;;;;;;;5063822;28;20212;-81
2022/06/15 11:50:23;;;;;;;1.95;1.13;;;;;;;;;;5056891;28;20241;-82
2022/06/15 11:53:01;;;;;;;1.30;1.20;;;;;;;;;;5056378;28;20555;-83
2022/06/15 11:55:38;;;;;;;0.93;0.93;;;;;;;;;;5019745;28;20330;-83
2022/06/15 11:58:17;;;;;;;1.00;1.00;;;;;;;;;;5058841;28;20208;-82
2022/06/15 12:00:47;;;;;;;2.90;1.35;;;;;;;;;;5057761;28;20291;-82
2022/06/15 12:03:25;;;;;;;0.90;0.90;;;;;;;;;;5057503;28;20209;-81
2022/06/15 12:05:54;;;;;;;1.00;1.00;;;;;;;;;;5043274;28;20236;-81
2022/06/15 12:08:30;;;;;;;0.95;0.95;;;;;;;;;;5039925;28;20217;-83
2022/06/15 12:10:58;;;;;;;1.08;0.98;;;;;;;;;;5041723;28;20220;-82
2022/06/15 12:13:30;;;;;;;0.93;0.93;;;;;;;;;;5049540;28;20209;-82
2022/06/15 12:16:00;;;;;;;1.10;1.10;;;;;;;;;;5040567;28;20221;-83
2022/06/15 12:18:35;;;;;;;1.30;0.85;;;;;;;;;;5048833;28;20269;-82
2022/06/15 12:21:08;;;;;;;1.20;1.20;;;;;;;;;;5041123;28;20753;-85
2022/06/15 12:23:41;;;;;;;1.00;1.00;;;;;;;;;;5043793;28;20213;-85
2022/06/15 12:26:15;;;;;;;1.13;0.90;;;;;;;;;;5063288;28;20233;-88
2022/06/15 12:28:46;;;;;;;0.85;0.75;;;;;;;;;;5068336;28;20236;-86
2022/06/15 12:31:17;;;;;;;0.88;0.85;;;;;;;;;;5062423;28;20237;-86
2022/06/15 12:33:49;;;;;;;1.08;1.00;;;;;;;;;;5059292;28;20233;-87
2022/06/15 12:36:21;;;;;;;0.90;0.90;;;;;;;;;;5057930;28;20237;-86
2022/06/15 12:38:55;;;;;;;1.30;1.08;;;;;;;;;;5051437;28;20236;-86
2022/06/15 12:44:15;;;;;;;0.85;0.85;;;;;;;;;;5040271;28;20217;-86
2022/06/15 12:46:44;;;;;;;0.70;0.70;;;;;;;;;;5050450;28;20201;-86
2022/06/15 12:49:20;;;;;;;0.95;0.85;;;;;;;;;;5045895;28;20289;-87
2022/06/15 12:51:51;;;;;;;0.90;0.90;;;;;;;;;;5046303;28;20205;-87
2022/06/15 12:54:24;;;;;;;1.10;1.10;;;;;;;;;;5043285;28;20242;-86
2022/06/15 12:56:54;;;;;;;1.00;0.82;;;;;;;;;;5037908;28;20210;-86
2022/06/15 12:59:26;;;;;;;0.80;0.80;;;;;;;;;;5039702;28;20244;-86
2022/06/15 13:01:59;;;;;;;0.90;0.88;;;;;;;;;;5055109;28;20200;-82
2022/06/15 13:04:33;;;;;;;0.82;0.82;;;;;;;;;;5065562;28;20240;-79
2022/06/15 13:07:21;;;;;;;1.45;1.20;;;;;;;;;;5054046;28;20210;-80
2022/06/15 13:10:09;;;;;;;1.10;1.10;;;;;;;;;;5071246;28;20230;-82
2022/06/15 13:12:39;;;;;;;1.67;1.58;;;;;;;;;;5067546;28;20193;-82
2022/06/15 13:15:07;;;;;;;1.27;1.20;;;;;;;;;;5072044;28;20233;-81
2022/06/15 13:18:06;;;;;;;0.95;0.95;;;;;;;;;;5074380;28;20213;-81
2022/06/15 13:20:34;;;;;;;1.13;1.13;;;;;;;;;;5073196;28;20233;-82
2022/06/15 13:23:01;;;;;;;0.80;0.80;;;;;;;;;;5074058;28;20198;-82
2022/06/15 13:25:28;;;;;;;1.40;1.30;;;;;;;;;;5071453;28;20245;-83
2022/06/15 13:28:11;;;;;;;1.85;1.10;;;;;;;;;;5072913;28;20201;-82
2022/06/15 13:30:54;;;;;;;1.17;1.08;;;;;;;;;;5058310;28;20697;-84
2022/06/15 13:33:21;;;;;;;1.40;1.20;;;;;;;;;;5054732;28;20628;-84
2022/06/15 13:36:09;;;;;;;1.10;1.00;;;;;;;;;;5054694;28;20240;-85
2022/06/15 13:38:37;;;;;;;1.20;1.20;;;;;;;;;;5055734;28;20240;-82
2022/06/15 13:41:16;;;;;;;1.30;1.30;;;;;;;;;;5057292;28;20287;-84
2022/06/15 13:44:02;;;;;;;2.50;1.13;;;;;;;;;;5053702;28;20189;-85
2022/06/15 13:46:31;;;;;;;1.30;1.20;;;;;;;;;;5053504;28;20220;-85
2022/06/15 13:49:00;;;;;;;1.00;1.00;;;;;;;;;;5052513;28;20225;-85
2022/06/15 13:51:30;;;;;;;1.20;1.10;;;;;;;;;;5053012;28;20816;-86
2022/06/15 13:54:04;;;;;;;1.25;1.25;;;;;;;;;;5053257;28;20572;-85
2022/06/15 13:56:33;;;;;;;1.88;1.23;;;;;;;;;;5053561;28;20214;-85
2022/06/15 13:59:14;;;;;;;1.60;1.50;;;;;;;;;;5052834;28;20596;-85
2022/06/15 14:02:00;;;;;;;2.10;1.58;;;;;;;;;;5053322;28;20201;-85
2022/06/15 14:04:48;;;;;;;1.13;1.10;;;;;;;;;;5052409;28;20228;-85
2022/06/15 14:07:33;;;;;;;1.65;1.30;;;;;;;;;;5048983;28;20205;-87
2022/06/15 14:10:04;;;;;;;0.98;0.98;;;;;;;;;;5043921;28;20312;-87
2022/06/15 14:12:51;;;;;;;0.93;0.93;;;;;;;;;;5054211;28;20189;-87
2022/06/15 14:15:33;;;;;;;0.90;0.90;;;;;;;;;;5052825;28;20244;-86
2022/06/15 14:18:08;;;;;;;4.05;1.65;;;;;;;;;;5065439;28;20213;-87
2022/06/15 14:20:37;;;;;;;1.48;1.38;;;;;;;;;;5045119;28;20310;-86
2022/06/15 14:23:06;;;;;;;2.13;1.48;;;;;;;;;;5013558;28;20611;-86
2022/06/15 14:25:39;;;;;;;1.20;1.10;;;;;;;;;;5013900;28;20227;-86
2022/06/15 14:28:08;;;;;;;1.45;1.35;;;;;;;;;;5014028;28;20664;-86
2022/06/15 14:30:36;;;;;;;1.23;1.17;;;;;;;;;;5013664;28;20238;-87
2022/06/15 14:33:04;;;;;;;1.00;0.88;;;;;;;;;;5027279;28;20205;-86
2022/06/15 14:35:31;;;;;;;1.10;1.00;;;;;;;;;;5031929;28;20242;-87
2022/06/15 14:38:00;;;;;;;1.15;1.15;;;;;;;;;;5017474;28;20186;-86
2022/06/15 14:40:30;;;;;;;1.23;1.08;;;;;;;;;;5032594;28;20294;-86
2022/06/15 14:42:59;;;;;;;1.27;1.23;;;;;;;;;;5013255;28;20606;-85
2022/06/15 14:45:28;;;;;;;1.40;1.20;;;;;;;;;;5013361;28;20223;-85
2022/06/15 14:47:56;;;;;;;1.10;1.10;;;;;;;;;;5012785;28;20215;-86
2022/06/15 14:50:26;;;;;;;1.50;1.30;;;;;;;;;;5029314;28;20308;-86
2022/06/15 14:52:53;;;;;;;1.40;1.30;;;;;;;;;;5032806;28;20603;-87
2022/06/15 14:55:22;;;;;;;1.35;1.25;;;;;;;;;;5032121;28;20237;-85
2022/06/15 14:57:49;;;;;;;1.50;1.40;;;;;;;;;;5019767;28;20211;-85
2022/06/15 15:00:23;;;;;;;1.10;1.10;;;;;;;;;;5011675;28;20239;-84
2022/06/15 15:02:51;;;;;;;1.27;1.20;;;;;;;;;;5022709;28;20207;-84
2022/06/15 15:05:19;;;;;;;1.83;1.50;;;;;;;;;;5019476;28;20227;-84
2022/06/15 15:08:06;;;;;;;1.45;1.25;;;;;;;;;;5016774;28;20222;-83
2022/06/15 15:10:35;;;;;;;1.60;1.45;;;;;;;;;;5026033;28;20235;-85
2022/06/15 15:13:16;;;;;;;1.17;1.17;;;;;;;;;;5044692;28;20260;-84
2022/06/15 15:15:46;;;;;;;1.40;1.30;;;;;;;;;;5016775;28;20717;-84
2022/06/15 15:18:15;;;;;;;2.70;1.67;;;;;;;;;;5024911;28;20237;-84